sensor_id;sensor_type;location;lat;lon;timestamp;pressure;altitude;pressure_sealevel;temperature;humidity
26865;BME280;40618;51.166;10.322;2024-01-11T00:00:30;98751.06;;;-9.65;81.71
26865;BME280;40618;51.166;10.322;2024-01-11T00:02:55;98736.81;;;-9.66;81.70
26865;BME280;40618;51.166;10.322;2024-01-11T00:05:21;98741.81;;;-9.66;81.76
26865;BME280;40618;51.166;10.322;2024-01-11T00:07:47;98746.06;;;-9.65;81.71
26865;BME280;40618;51.166;10.322;2024-01-11T00:10:13;98740.28;;;-9.64;82.47
26865;BME280;40618;51.166;10.322;2024-01-11T00:12:41;98740.38;;;-9.62;81.86
26865;BME280;40618;51.166;10.322;2024-01-11T00:15:06;98741.28;;;-9.62;81.92
26865;BME280;40618;51.166;10.322;2024-01-11T00:17:32;98747.91;;;-9.62;82.20
26865;BME280;40618;51.166;10.322;2024-01-11T00:19:58;98751.06;;;-9.65;81.82
26865;BME280;40618;51.166;10.322;2024-01-11T00:22:24;98755.97;;;-9.66;81.37
26865;BME280;40618;51.166;10.322;2024-01-11T00:24:49;98749.25;;;-9.67;81.72
26865;BME280;40618;51.166;10.322;2024-01-11T00:27:15;98735.91;;;-9.66;82.10
26865;BME280;40618;51.166;10.322;2024-01-11T00:29:40;98738.53;;;-9.65;82.08
26865;BME280;40618;51.166;10.322;2024-01-11T00:32:06;98731.81;;;-9.66;82.02
26865;BME280;40618;51.166;10.322;2024-01-11T00:34:32;98737.56;;;-9.67;81.93
26865;BME280;40618;51.166;10.322;2024-01-11T00:36:57;98739.97;;;-9.68;81.90
26865;BME280;40618;51.166;10.322;2024-01-11T00:39:23;98733.00;;;-9.73;81.67
26865;BME280;40618;51.166;10.322;2024-01-11T00:41:48;98739.75;;;-9.72;81.65
26865;BME280;40618;51.166;10.322;2024-01-11T00:44:14;98739.63;;;-9.73;81.72
26865;BME280;40618;51.166;10.322;2024-01-11T00:46:40;98729.50;;;-9.75;81.97
26865;BME280;40618;51.166;10.322;2024-01-11T00:49:06;98732.78;;;-9.76;81.52
26865;BME280;40618;51.166;10.322;2024-01-11T00:51:32;98730.38;;;-9.74;81.97
26865;BME280;40618;51.166;10.322;2024-01-11T00:53:58;98726.13;;;-9.75;81.96
26865;BME280;40618;51.166;10.322;2024-01-11T00:56:23;98727.78;;;-9.76;81.73
26865;BME280;40618;51.166;10.322;2024-01-11T00:58:49;98723.53;;;-9.77;81.34
26865;BME280;40618;51.166;10.322;2024-01-11T01:01:14;98716.88;;;-9.76;81.67
26865;BME280;40618;51.166;10.322;2024-01-11T01:03:40;98719.38;;;-9.76;81.42
26865;BME280;40618;51.166;10.322;2024-01-11T01:06:05;98714.34;;;-9.76;81.56
26865;BME280;40618;51.166;10.322;2024-01-11T01:08:31;98719.16;;;-9.79;81.40
26865;BME280;40618;51.166;10.322;2024-01-11T01:10:57;98718.16;;;-9.81;81.71
26865;BME280;40618;51.166;10.322;2024-01-11T01:13:22;98719.72;;;-9.83;81.38
26865;BME280;40618;51.166;10.322;2024-01-11T01:15:48;98716.22;;;-9.86;81.38
26865;BME280;40618;51.166;10.322;2024-01-11T01:18:14;98712.63;;;-9.89;81.30
26865;BME280;40618;51.166;10.322;2024-01-11T01:20:39;98709.25;;;-9.90;81.62
26865;BME280;40618;51.166;10.322;2024-01-11T01:23:05;98705.97;;;-9.89;81.73
26865;BME280;40618;51.166;10.322;2024-01-11T01:25:31;98705.97;;;-9.89;81.65
26865;BME280;40618;51.166;10.322;2024-01-11T01:27:57;98702.38;;;-9.92;81.45
26865;BME280;40618;51.166;10.322;2024-01-11T01:30:24;98706.88;;;-10.00;81.30
26865;BME280;40618;51.166;10.322;2024-01-11T01:32:50;98705.66;;;-10.05;81.28
26865;BME280;40618;51.166;10.322;2024-01-11T01:35:15;98696.66;;;-10.03;81.65
26865;BME280;40618;51.166;10.322;2024-01-11T01:37:41;98710.03;;;-10.02;81.55
26865;BME280;40618;51.166;10.322;2024-01-11T01:40:08;98703.91;;;-10.06;81.38
26865;BME280;40618;51.166;10.322;2024-01-11T01:42:34;98698.91;;;-10.06;81.14
26865;BME280;40618;51.166;10.322;2024-01-11T01:45:00;98696.50;;;-10.05;81.34
26865;BME280;40618;51.166;10.322;2024-01-11T01:47:28;98689.88;;;-10.04;81.88
26865;BME280;40618;51.166;10.322;2024-01-11T01:49:55;98687.38;;;-10.04;81.10
26865;BME280;40618;51.166;10.322;2024-01-11T01:52:21;98683.88;;;-10.06;81.50
26865;BME280;40618;51.166;10.322;2024-01-11T01:54:48;98682.91;;;-10.08;81.25
26865;BME280;40618;51.166;10.322;2024-01-11T01:57:16;98683.66;;;-10.09;81.28
26865;BME280;40618;51.166;10.322;2024-01-11T01:59:42;98690.09;;;-10.13;81.18
26865;BME280;40618;51.166;10.322;2024-01-11T02:02:09;98675.50;;;-10.18;81.39
26865;BME280;40618;51.166;10.322;2024-01-11T02:04:35;98680.41;;;-10.20;81.36
26865;BME280;40618;51.166;10.322;2024-01-11T02:07:01;98675.41;;;-10.20;81.78
26865;BME280;40618;51.166;10.322;2024-01-11T02:09:28;98672.25;;;-10.17;81.65
26865;BME280;40618;51.166;10.322;2024-01-11T02:11:55;98686.81;;;-10.12;81.50
26865;BME280;40618;51.166;10.322;2024-01-11T02:14:21;98684.44;;;-10.10;81.41
26865;BME280;40618;51.166;10.322;2024-01-11T02:16:46;98699.56;;;-10.09;81.45
26865;BME280;40618;51.166;10.322;2024-01-11T02:19:17;98695.00;;;-10.14;81.66
26865;BME280;40618;51.166;10.322;2024-01-11T02:21:46;98704.03;;;-10.16;81.73
26865;BME280;40618;51.166;10.322;2024-01-11T02:24:13;98695.88;;;-10.14;81.47
26865;BME280;40618;51.166;10.322;2024-01-11T02:27:02;98688.47;;;-10.12;81.98
26865;BME280;40618;51.166;10.322;2024-01-11T02:29:29;98687.81;;;-10.10;81.21
26865;BME280;40618;51.166;10.322;2024-01-11T02:31:56;98692.19;;;-10.07;81.37
26865;BME280;40618;51.166;10.322;2024-01-11T02:34:24;98692.94;;;-10.08;81.71
26865;BME280;40618;51.166;10.322;2024-01-11T02:36:52;98696.09;;;-10.11;81.21
26865;BME280;40618;51.166;10.322;2024-01-11T02:39:19;98692.59;;;-10.13;81.74
26865;BME280;40618;51.166;10.322;2024-01-11T02:41:45;98690.97;;;-10.12;81.84
26865;BME280;40618;51.166;10.322;2024-01-11T02:44:12;98687.81;;;-10.10;81.22
26865;BME280;40618;51.166;10.322;2024-01-11T02:46:38;98693.69;;;-10.09;81.19
26865;BME280;40618;51.166;10.322;2024-01-11T02:49:03;98688.69;;;-10.09;81.79
26865;BME280;40618;51.166;10.322;2024-01-11T02:51:29;98683.66;;;-10.09;81.89
26865;BME280;40618;51.166;10.322;2024-01-11T02:53:54;98685.22;;;-10.11;81.24
26865;BME280;40618;51.166;10.322;2024-01-11T02:56:20;98683.47;;;-10.12;81.63
26865;BME280;40618;51.166;10.322;2024-01-11T02:58:45;98686.81;;;-10.12;81.31
26865;BME280;40618;51.166;10.322;2024-01-11T03:01:11;98693.38;;;-10.14;81.64
26865;BME280;40618;51.166;10.322;2024-01-11T03:03:36;98698.28;;;-10.15;81.31
26865;BME280;40618;51.166;10.322;2024-01-11T03:06:02;98697.38;;;-10.16;81.34
26865;BME280;40618;51.166;10.322;2024-01-11T03:08:29;98701.34;;;-10.19;80.95
26865;BME280;40618;51.166;10.322;2024-01-11T03:10:54;98699.47;;;-10.22;81.04
26865;BME280;40618;51.166;10.322;2024-01-11T03:13:20;98706.09;;;-10.23;81.19
26865;BME280;40618;51.166;10.322;2024-01-11T03:15:46;98700.97;;;-10.24;81.11
26865;BME280;40618;51.166;10.322;2024-01-11T03:18:11;98704.25;;;-10.25;81.17
26865;BME280;40618;51.166;10.322;2024-01-11T03:20:37;98704.91;;;-10.28;81.35
26865;BME280;40618;51.166;10.322;2024-01-11T03:23:02;98700.56;;;-10.30;81.42
26865;BME280;40618;51.166;10.322;2024-01-11T03:25:31;98693.69;;;-10.33;81.43
26865;BME280;40618;51.166;10.322;2024-01-11T03:28:00;98701.22;;;-10.33;81.57
26865;BME280;40618;51.166;10.322;2024-01-11T03:30:26;98701.22;;;-10.33;81.08
26865;BME280;40618;51.166;10.322;2024-01-11T03:32:51;98701.97;;;-10.34;81.38
26865;BME280;40618;51.166;10.322;2024-01-11T03:35:18;98692.63;;;-10.36;81.14
26865;BME280;40618;51.166;10.322;2024-01-11T03:37:44;98697.75;;;-10.35;81.24
26865;BME280;40618;51.166;10.322;2024-01-11T03:40:10;98705.25;;;-10.35;81.24
26865;BME280;40618;51.166;10.322;2024-01-11T03:42:36;98717.00;;;-10.34;81.75
26865;BME280;40618;51.166;10.322;2024-01-11T03:45:03;98724.44;;;-10.35;81.05
26865;BME280;40618;51.166;10.322;2024-01-11T03:47:29;98706.69;;;-10.39;81.45
26865;BME280;40618;51.166;10.322;2024-01-11T03:49:55;98705.03;;;-10.38;80.78
26865;BME280;40618;51.166;10.322;2024-01-11T03:52:21;98703.28;;;-10.39;81.40
26865;BME280;40618;51.166;10.322;2024-01-11T03:54:47;98705.16;;;-10.36;81.24
26865;BME280;40618;51.166;10.322;2024-01-11T03:57:12;98707.44;;;-10.40;81.17
26865;BME280;40618;51.166;10.322;2024-01-11T03:59:40;98702.22;;;-10.43;81.41
26865;BME280;40618;51.166;10.322;2024-01-11T04:02:06;98706.34;;;-10.43;81.16
26865;BME280;40618;51.166;10.322;2024-01-11T04:04:32;98706.34;;;-10.43;81.57
26865;BME280;40618;51.166;10.322;2024-01-11T04:06:58;98708.41;;;-10.38;81.62
26865;BME280;40618;51.166;10.322;2024-01-11T04:09:23;98691.13;;;-10.34;81.01
26865;BME280;40618;51.166;10.322;2024-01-11T04:11:49;98691.19;;;-10.33;81.44
26865;BME280;40618;51.166;10.322;2024-01-11T04:14:15;98696.13;;;-10.34;81.49
26865;BME280;40618;51.166;10.322;2024-01-11T04:16:44;98691.53;;;-10.40;80.78
26865;BME280;40618;51.166;10.322;2024-01-11T04:19:10;98684.81;;;-10.41;81.40
26865;BME280;40618;51.166;10.322;2024-01-11T04:21:36;98689.16;;;-10.39;80.90
26865;BME280;40618;51.166;10.322;2024-01-11T04:24:04;98699.94;;;-10.40;81.21
26865;BME280;40618;51.166;10.322;2024-01-11T04:26:33;98701.53;;;-10.40;81.60
26865;BME280;40618;51.166;10.322;2024-01-11T04:28:59;98704.94;;;-10.40;81.17
26865;BME280;40618;51.166;10.322;2024-01-11T04:31:25;98711.03;;;-10.36;81.41
26865;BME280;40618;51.166;10.322;2024-01-11T04:33:51;98705.44;;;-10.32;81.89
26865;BME280;40618;51.166;10.322;2024-01-11T04:36:17;98704.56;;;-10.32;81.29
26865;BME280;40618;51.166;10.322;2024-01-11T04:38:42;98697.81;;;-10.33;81.31
26865;BME280;40618;51.166;10.322;2024-01-11T04:41:10;98696.97;;;-10.34;81.26
26865;BME280;40618;51.166;10.322;2024-01-11T04:43:40;98702.81;;;-10.33;80.75
26865;BME280;40618;51.166;10.322;2024-01-11T04:48:43;98689.44;;;-10.34;81.25
26865;BME280;40618;51.166;10.322;2024-01-11T04:51:09;98692.81;;;-10.33;81.21
26865;BME280;40618;51.166;10.322;2024-01-11T04:53:37;98697.91;;;-10.32;81.13
26865;BME280;40618;51.166;10.322;2024-01-11T04:56:07;98713.66;;;-10.34;81.50
26865;BME280;40618;51.166;10.322;2024-01-11T04:58:34;98707.44;;;-10.40;81.13
26865;BME280;40618;51.166;10.322;2024-01-11T05:01:00;98715.81;;;-10.39;81.11
26865;BME280;40618;51.166;10.322;2024-01-11T05:03:28;98715.06;;;-10.38;81.12
26865;BME280;40618;51.166;10.322;2024-01-11T05:05:54;98715.28;;;-10.35;80.76
26865;BME280;40618;51.166;10.322;2024-01-11T05:08:20;98723.69;;;-10.34;81.31
26865;BME280;40618;51.166;10.322;2024-01-11T05:10:45;98723.75;;;-10.33;80.85
26865;BME280;40618;51.166;10.322;2024-01-11T05:13:11;98737.03;;;-10.34;81.36
26865;BME280;40618;51.166;10.322;2024-01-11T05:15:36;98737.81;;;-10.35;81.04
26865;BME280;40618;51.166;10.322;2024-01-11T05:18:02;98740.31;;;-10.35;80.94
26865;BME280;40618;51.166;10.322;2024-01-11T05:20:28;98751.31;;;-10.33;81.14
26865;BME280;40618;51.166;10.322;2024-01-11T05:22:54;98768.19;;;-10.30;80.99
26865;BME280;40618;51.166;10.322;2024-01-11T05:25:20;98761.41;;;-10.31;80.92
26865;BME280;40618;51.166;10.322;2024-01-11T05:27:46;98761.25;;;-10.34;80.99
26865;BME280;40618;51.166;10.322;2024-01-11T05:30:11;98761.63;;;-10.40;81.06
26865;BME280;40618;51.166;10.322;2024-01-11T05:32:37;98751.88;;;-10.37;81.50
26865;BME280;40618;51.166;10.322;2024-01-11T05:35:03;98762.06;;;-10.34;81.24
26865;BME280;40618;51.166;10.322;2024-01-11T05:37:29;98769.69;;;-10.32;81.14
26865;BME280;40618;51.166;10.322;2024-01-11T05:39:54;98758.16;;;-10.30;81.20
26865;BME280;40618;51.166;10.322;2024-01-11T05:42:22;98765.00;;;-10.28;81.36
26865;BME280;40618;51.166;10.322;2024-01-11T05:44:48;98758.16;;;-10.30;80.77
26865;BME280;40618;51.166;10.322;2024-01-11T05:47:14;98757.28;;;-10.31;81.17
26865;BME280;40618;51.166;10.322;2024-01-11T05:49:40;98755.66;;;-10.30;81.41
26865;BME280;40618;51.166;10.322;2024-01-11T05:52:06;98754.88;;;-10.29;81.63
26865;BME280;40618;51.166;10.322;2024-01-11T05:54:31;98743.25;;;-10.29;81.38
26865;BME280;40618;51.166;10.322;2024-01-11T05:56:57;98729.94;;;-10.28;80.92
26865;BME280;40618;51.166;10.322;2024-01-11T05:59:24;98717.56;;;-10.26;81.41
26865;BME280;40618;51.166;10.322;2024-01-11T06:01:50;98714.38;;;-10.24;81.00
26865;BME280;40618;51.166;10.322;2024-01-11T06:04:15;98706.00;;;-10.24;81.13
26865;BME280;40618;51.166;10.322;2024-01-11T06:06:41;98708.59;;;-10.23;81.83
26865;BME280;40618;51.166;10.322;2024-01-11T06:09:07;98706.00;;;-10.24;81.63
26865;BME280;40618;51.166;10.322;2024-01-11T06:11:35;98712.00;;;-10.22;81.24
26865;BME280;40618;51.166;10.322;2024-01-11T06:14:01;98714.38;;;-10.24;81.03
26865;BME280;40618;51.166;10.322;2024-01-11T06:16:28;98707.66;;;-10.36;81.25
26865;BME280;40618;51.166;10.322;2024-01-11T06:18:53;98714.50;;;-10.46;81.65
26865;BME280;40618;51.166;10.322;2024-01-11T06:21:19;98721.38;;;-10.43;81.03
26865;BME280;40618;51.166;10.322;2024-01-11T06:23:44;98739.09;;;-10.40;81.34
26865;BME280;40618;51.166;10.322;2024-01-11T06:26:10;98731.84;;;-10.37;80.97
26865;BME280;40618;51.166;10.322;2024-01-11T06:28:36;98737.03;;;-10.34;81.46
26865;BME280;40618;51.166;10.322;2024-01-11T06:31:01;98752.16;;;-10.32;81.80
26865;BME280;40618;51.166;10.322;2024-01-11T06:33:27;98762.06;;;-10.34;81.08
26865;BME280;40618;51.166;10.322;2024-01-11T06:35:53;98763.94;;;-10.31;81.52
26865;BME280;40618;51.166;10.322;2024-01-11T06:38:19;98746.50;;;-10.30;81.16
26865;BME280;40618;51.166;10.322;2024-01-11T06:40:45;98751.41;;;-10.31;81.15
26865;BME280;40618;51.166;10.322;2024-01-11T06:43:10;98747.91;;;-10.33;81.87
26865;BME280;40618;51.166;10.322;2024-01-11T06:45:36;98747.94;;;-10.45;81.27
26865;BME280;40618;51.166;10.322;2024-01-11T06:48:02;98751.94;;;-10.47;81.71
26865;BME280;40618;51.166;10.322;2024-01-11T06:50:28;98746.28;;;-10.45;81.67
26865;BME280;40618;51.166;10.322;2024-01-11T06:52:54;98740.63;;;-10.42;81.94
26865;BME280;40618;51.166;10.322;2024-01-11T06:55:19;98753.38;;;-10.39;81.32
26865;BME280;40618;51.166;10.322;2024-01-11T06:57:48;98767.00;;;-10.35;81.83
26865;BME280;40618;51.166;10.322;2024-01-11T07:00:14;98767.06;;;-10.34;81.52
26865;BME280;40618;51.166;10.322;2024-01-11T07:02:39;98764.56;;;-10.34;81.38
26865;BME280;40618;51.166;10.322;2024-01-11T07:05:05;98768.94;;;-10.31;81.90
26865;BME280;40618;51.166;10.322;2024-01-11T07:07:32;98764.91;;;-10.29;81.69
26865;BME280;40618;51.166;10.322;2024-01-11T07:09:58;98763.50;;;-10.38;81.27
26865;BME280;40618;51.166;10.322;2024-01-11T07:12:24;98762.31;;;-10.43;81.61
26865;BME280;40618;51.166;10.322;2024-01-11T07:14:51;98766.66;;;-10.40;81.26
26865;BME280;40618;51.166;10.322;2024-01-11T07:17:17;98771.13;;;-10.36;81.34
26865;BME280;40618;51.166;10.322;2024-01-11T07:19:43;98763.41;;;-10.39;81.29
26865;BME280;40618;51.166;10.322;2024-01-11T07:22:08;98766.44;;;-10.43;81.41
26865;BME280;40618;51.166;10.322;2024-01-11T07:24:34;98776.66;;;-10.40;81.97
26865;BME280;40618;51.166;10.322;2024-01-11T07:27:06;98775.38;;;-10.35;81.42
26865;BME280;40618;51.166;10.322;2024-01-11T07:29:33;98780.56;;;-10.32;81.67
26865;BME280;40618;51.166;10.322;2024-01-11T07:31:59;98768.94;;;-10.31;81.94
26865;BME280;40618;51.166;10.322;2024-01-11T07:34:26;98759.03;;;-10.30;81.72
26865;BME280;40618;51.166;10.322;2024-01-11T07:36:52;98759.13;;;-10.28;82.22
26865;BME280;40618;51.166;10.322;2024-01-11T07:39:18;98762.75;;;-10.36;81.24
26865;BME280;40618;51.166;10.322;2024-01-11T07:41:44;98763.19;;;-10.42;81.98
26865;BME280;40618;51.166;10.322;2024-01-11T07:44:10;98762.75;;;-10.36;81.85
26865;BME280;40618;51.166;10.322;2024-01-11T07:46:36;98757.28;;;-10.31;81.76
26865;BME280;40618;51.166;10.322;2024-01-11T07:49:02;98751.84;;;-10.25;81.61
26865;BME280;40618;51.166;10.322;2024-01-11T07:51:28;98742.06;;;-10.22;81.61
26865;BME280;40618;51.166;10.322;2024-01-11T07:53:54;98739.66;;;-10.21;81.80
26865;BME280;40618;51.166;10.322;2024-01-11T07:56:19;98745.00;;;-10.16;81.66
26865;BME280;40618;51.166;10.322;2024-01-11T07:58:45;98752.50;;;-10.16;81.73
26865;BME280;40618;51.166;10.322;2024-01-11T08:01:11;98767.63;;;-10.14;81.78
26865;BME280;40618;51.166;10.322;2024-01-11T08:03:37;98761.13;;;-10.12;81.91
26865;BME280;40618;51.166;10.322;2024-01-11T08:06:04;98768.09;;;-10.08;81.86
26865;BME280;40618;51.166;10.322;2024-01-11T08:08:32;98782.59;;;-10.04;82.10
26865;BME280;40618;51.166;10.322;2024-01-11T08:10:59;98773.31;;;-10.05;81.75
26865;BME280;40618;51.166;10.322;2024-01-11T08:13:24;98784.34;;;-10.03;82.14
26865;BME280;40618;51.166;10.322;2024-01-11T08:15:50;98776.13;;;-10.00;82.17
26865;BME280;40618;51.166;10.322;2024-01-11T08:18:18;98767.34;;;-10.07;81.50
26865;BME280;40618;51.166;10.322;2024-01-11T08:20:44;98768.19;;;-10.07;82.13
26865;BME280;40618;51.166;10.322;2024-01-11T08:23:09;98763.50;;;-10.02;82.23
26865;BME280;40618;51.166;10.322;2024-01-11T08:25:35;98762.97;;;-9.98;82.33
26865;BME280;40618;51.166;10.322;2024-01-11T08:28:01;98758.31;;;-9.93;82.34
26865;BME280;40618;51.166;10.322;2024-01-11T08:30:28;98762.75;;;-9.89;81.93
26865;BME280;40618;51.166;10.322;2024-01-11T08:32:54;98762.13;;;-9.87;81.90
26865;BME280;40618;51.166;10.322;2024-01-11T08:35:21;98767.13;;;-9.87;82.08
26865;BME280;40618;51.166;10.322;2024-01-11T08:37:47;98763.72;;;-9.87;82.18
26865;BME280;40618;51.166;10.322;2024-01-11T08:40:13;98766.47;;;-9.84;82.29
26865;BME280;40618;51.166;10.322;2024-01-11T08:42:38;98774.31;;;-9.79;82.61
26865;BME280;40618;51.166;10.322;2024-01-11T08:45:06;98772.91;;;-9.76;82.35
26865;BME280;40618;51.166;10.322;2024-01-11T08:47:35;98770.59;;;-9.73;82.35
26865;BME280;40618;51.166;10.322;2024-01-11T08:50:03;98774.31;;;-9.67;82.65
26865;BME280;40618;51.166;10.322;2024-01-11T08:52:31;98769.41;;;-9.66;82.30
26865;BME280;40618;51.166;10.322;2024-01-11T08:54:58;98762.00;;;-9.64;82.56
26865;BME280;40618;51.166;10.322;2024-01-11T08:57:24;98761.34;;;-9.62;82.06
26865;BME280;40618;51.166;10.322;2024-01-11T08:59:49;98768.19;;;-9.59;82.81
26865;BME280;40618;51.166;10.322;2024-01-11T09:02:15;98775.81;;;-9.58;82.27
26865;BME280;40618;51.166;10.322;2024-01-11T09:04:40;98770.91;;;-9.56;82.31
26865;BME280;40618;51.166;10.322;2024-01-11T09:07:06;98767.97;;;-9.50;82.71
26865;BME280;40618;51.166;10.322;2024-01-11T09:09:32;98758.38;;;-9.44;82.73
26865;BME280;40618;51.166;10.322;2024-01-11T09:11:57;98752.81;;;-9.40;82.62
26865;BME280;40618;51.166;10.322;2024-01-11T09:14:23;98760.53;;;-9.37;82.97
26865;BME280;40618;51.166;10.322;2024-01-11T09:16:48;98767.59;;;-9.31;82.85
26865;BME280;40618;51.166;10.322;2024-01-11T09:19:15;98770.31;;;-9.28;82.60
26865;BME280;40618;51.166;10.322;2024-01-11T09:21:41;98773.03;;;-9.25;82.92
26865;BME280;40618;51.166;10.322;2024-01-11T09:24:07;98768.34;;;-9.21;83.19
26865;BME280;40618;51.166;10.322;2024-01-11T09:26:33;98769.63;;;-9.14;83.21
26865;BME280;40618;51.166;10.322;2024-01-11T09:28:58;98766.66;;;-9.08;83.25
26865;BME280;40618;51.166;10.322;2024-01-11T09:31:24;98774.59;;;-9.02;82.99
26865;BME280;40618;51.166;10.322;2024-01-11T09:33:49;98772.50;;;-8.96;83.50
26865;BME280;40618;51.166;10.322;2024-01-11T09:36:15;98778.72;;;-8.91;83.39
26865;BME280;40618;51.166;10.322;2024-01-11T09:38:41;98770.72;;;-8.85;83.42
26865;BME280;40618;51.166;10.322;2024-01-11T09:41:09;98763.59;;;-8.79;83.07
26865;BME280;40618;51.166;10.322;2024-01-11T09:43:37;98769.13;;;-8.71;83.29
26865;BME280;40618;51.166;10.322;2024-01-11T09:46:04;98768.75;;;-8.64;83.66
26865;BME280;40618;51.166;10.322;2024-01-11T09:48:35;98753.03;;;-8.61;83.48
26865;BME280;40618;51.166;10.322;2024-01-11T09:51:07;98762.50;;;-8.57;83.48
26865;BME280;40618;51.166;10.322;2024-01-11T09:53:36;98763.78;;;-8.51;83.57
26865;BME280;40618;51.166;10.322;2024-01-11T09:56:07;98761.66;;;-8.44;83.64
26865;BME280;40618;51.166;10.322;2024-01-11T09:58:35;98764.56;;;-8.38;83.74
26865;BME280;40618;51.166;10.322;2024-01-11T10:01:07;98760.91;;;-8.30;84.20
26865;BME280;40618;51.166;10.322;2024-01-11T10:03:35;98761.41;;;-8.22;84.10
26865;BME280;40618;51.166;10.322;2024-01-11T10:06:02;98759.97;;;-8.19;84.19
26865;BME280;40618;51.166;10.322;2024-01-11T10:08:29;98753.56;;;-8.13;84.01
26865;BME280;40618;51.166;10.322;2024-01-11T10:10:55;98755.75;;;-8.06;84.04
26865;BME280;40618;51.166;10.322;2024-01-11T10:13:28;98756.13;;;-8.00;84.21
26865;BME280;40618;51.166;10.322;2024-01-11T10:16:11;98756.69;;;-7.91;84.23
26865;BME280;40618;51.166;10.322;2024-01-11T10:18:43;98753.69;;;-7.85;84.32
26865;BME280;40618;51.166;10.322;2024-01-11T10:21:09;98765.78;;;-7.79;84.10
26865;BME280;40618;51.166;10.322;2024-01-11T10:23:38;98769.75;;;-7.70;84.43
26865;BME280;40618;51.166;10.322;2024-01-11T10:26:04;98763.38;;;-7.65;84.51
26865;BME280;40618;51.166;10.322;2024-01-11T10:28:30;98771.50;;;-7.55;84.47
26865;BME280;40618;51.166;10.322;2024-01-11T10:30:56;98761.13;;;-7.46;84.84
26865;BME280;40618;51.166;10.322;2024-01-11T10:33:22;98767.56;;;-7.37;84.65
26865;BME280;40618;51.166;10.322;2024-01-11T10:35:48;98763.34;;;-7.24;84.99
26865;BME280;40618;51.166;10.322;2024-01-11T10:38:15;98767.44;;;-7.11;84.92
26865;BME280;40618;51.166;10.322;2024-01-11T10:40:42;98765.50;;;-7.02;85.14
26865;BME280;40618;51.166;10.322;2024-01-11T10:43:11;98760.31;;;-6.90;85.12
26865;BME280;40618;51.166;10.322;2024-01-11T10:45:41;98748.56;;;-6.76;85.03
26865;BME280;40618;51.166;10.322;2024-01-11T10:48:13;98746.91;;;-6.61;85.19
26865;BME280;40618;51.166;10.322;2024-01-11T10:50:44;98741.09;;;-6.60;84.84
26865;BME280;40618;51.166;10.322;2024-01-11T10:55:46;98722.69;;;-6.44;85.33
26865;BME280;40618;51.166;10.322;2024-01-11T10:58:13;98717.47;;;-6.32;85.03
26865;BME280;40618;51.166;10.322;2024-01-11T11:00:40;98729.09;;;-6.34;84.86
26865;BME280;40618;51.166;10.322;2024-01-11T11:03:06;98713.72;;;-6.39;84.75
26865;BME280;40618;51.166;10.322;2024-01-11T11:05:34;98703.91;;;-6.34;85.17
26865;BME280;40618;51.166;10.322;2024-01-11T11:08:01;98704.63;;;-6.22;85.25
26865;BME280;40618;51.166;10.322;2024-01-11T11:10:30;98695.22;;;-6.09;85.65
26865;BME280;40618;51.166;10.322;2024-01-11T11:12:57;98699.47;;;-5.92;85.60
26865;BME280;40618;51.166;10.322;2024-01-11T11:15:27;98695.69;;;-5.69;85.38
26865;BME280;40618;51.166;10.322;2024-01-11T11:17:53;98698.25;;;-5.52;85.50
26865;BME280;40618;51.166;10.322;2024-01-11T11:20:19;98696.63;;;-5.35;85.31
26865;BME280;40618;51.166;10.322;2024-01-11T11:23:02;98695.69;;;-5.21;85.32
26865;BME280;40618;51.166;10.322;2024-01-11T11:25:30;98685.13;;;-5.14;85.54
26865;BME280;40618;51.166;10.322;2024-01-11T11:27:56;98685.50;;;-5.06;85.23
26865;BME280;40618;51.166;10.322;2024-01-11T11:30:22;98674.84;;;-5.00;85.62
26865;BME280;40618;51.166;10.322;2024-01-11T11:32:48;98676.34;;;-4.87;85.20
26865;BME280;40618;51.166;10.322;2024-01-11T11:35:14;98686.09;;;-4.77;85.47
26865;BME280;40618;51.166;10.322;2024-01-11T11:37:39;98687.47;;;-4.67;85.58
26865;BME280;40618;51.166;10.322;2024-01-11T11:40:06;98693.06;;;-4.56;85.71
26865;BME280;40618;51.166;10.322;2024-01-11T11:42:34;98693.78;;;-4.59;84.96
26865;BME280;40618;51.166;10.322;2024-01-11T11:45:01;98686.63;;;-4.50;85.45
26865;BME280;40618;51.166;10.322;2024-01-11T11:47:34;98692.13;;;-4.40;85.34
26865;BME280;40618;51.166;10.322;2024-01-11T11:50:10;98683.38;;;-4.29;85.14
26865;BME280;40618;51.166;10.322;2024-01-11T11:52:38;98683.78;;;-4.21;85.46
26865;BME280;40618;51.166;10.322;2024-01-11T11:55:07;98676.56;;;-4.14;85.45
26865;BME280;40618;51.166;10.322;2024-01-11T11:57:35;98687.13;;;-4.04;84.95
26865;BME280;40618;51.166;10.322;2024-01-11T12:00:02;98682.56;;;-3.94;84.97
26865;BME280;40618;51.166;10.322;2024-01-11T12:02:32;98675.31;;;-3.86;84.92
26865;BME280;40618;51.166;10.322;2024-01-11T12:05:01;98673.69;;;-3.85;84.87
26865;BME280;40618;51.166;10.322;2024-01-11T12:07:27;98682.47;;;-3.95;84.58
26865;BME280;40618;51.166;10.322;2024-01-11T12:09:53;98678.72;;;-4.03;84.39
26865;BME280;40618;51.166;10.322;2024-01-11T12:12:19;98674.25;;;-4.09;84.66
26865;BME280;40618;51.166;10.322;2024-01-11T12:14:46;98666.44;;;-4.14;84.56
26865;BME280;40618;51.166;10.322;2024-01-11T12:17:14;98665.28;;;-4.20;83.97
26865;BME280;40618;51.166;10.322;2024-01-11T12:19:39;98661.78;;;-4.22;83.94
26865;BME280;40618;51.166;10.322;2024-01-11T12:22:05;98666.31;;;-4.17;84.05
26865;BME280;40618;51.166;10.322;2024-01-11T12:24:31;98660.81;;;-4.26;83.53
26865;BME280;40618;51.166;10.322;2024-01-11T12:26:59;98667.38;;;-4.30;83.62
26865;BME280;40618;51.166;10.322;2024-01-11T12:29:28;98670.69;;;-4.31;83.57
26865;BME280;40618;51.166;10.322;2024-01-11T12:31:56;98665.69;;;-4.29;84.31
26865;BME280;40618;51.166;10.322;2024-01-11T12:34:26;98658.47;;;-4.21;84.00
26865;BME280;40618;51.166;10.322;2024-01-11T12:36:53;98662.47;;;-4.09;84.15
26865;BME280;40618;51.166;10.322;2024-01-11T12:39:20;98657.09;;;-3.97;84.29
26865;BME280;40618;51.166;10.322;2024-01-11T12:41:49;98656.03;;;-3.84;83.69
26865;BME280;40618;51.166;10.322;2024-01-11T12:44:19;98636.47;;;-3.68;83.86
26865;BME280;40618;51.166;10.322;2024-01-11T12:46:47;98627.69;;;-3.57;84.19